Time;durP1;ratioP1;P1;durP2;ratioP2;P2;SDS_P1;SDS_P2;PMS_P1;PMS_P2;Temp;Humidity;BMP_temperature;BMP_pressure;BME280_temperature;BME280_humidity;BME280_pressure;Samples;Min_cycle;Max_cycle;Signal;HPM_P1;HPM_P2
2023/10/05 00:00:37;;;;;;;3.83;2.40;;;10.00;98.00;;;;;;5131747;27;20931;-63
2023/10/05 00:03:06;;;;;;;3.10;2.23;;;10.10;98.00;;;;;;5132156;28;21024;-63
2023/10/05 00:05:36;;;;;;;6.53;2.60;;;9.90;98.00;;;;;;5132120;28;20986;-65
2023/10/05 00:08:04;;;;;;;4.00;2.50;;;9.60;98.00;;;;;;5132268;28;20439;-62
2023/10/05 00:10:33;;;;;;;3.70;2.40;;;9.70;98.00;;;;;;5114076;28;20504;-64
2023/10/05 00:13:05;;;;;;;5.87;2.60;;;9.60;98.00;;;;;;5131900;28;20472;-64
2023/10/05 00:15:36;;;;;;;3.70;2.67;;;9.50;98.00;;;;;;5131869;28;20532;-64
2023/10/05 00:18:06;;;;;;;4.87;2.87;;;9.50;98.00;;;;;;5114375;28;20860;-63
2023/10/05 00:20:38;;;;;;;4.40;2.60;;;9.40;98.00;;;;;;5113532;28;20820;-63
2023/10/05 00:23:08;;;;;;;4.50;2.63;;;9.30;98.00;;;;;;5132050;28;20513;-64
2023/10/05 00:25:37;;;;;;;4.00;2.70;;;9.20;98.00;;;;;;5097752;28;20507;-62
2023/10/05 00:28:08;;;;;;;4.17;2.60;;;9.20;98.00;;;;;;5131843;28;20448;-63
2023/10/05 00:30:37;;;;;;;4.97;2.60;;;9.20;98.00;;;;;;5131732;28;20533;-63
2023/10/05 00:33:10;;;;;;;3.97;2.20;;;9.20;98.00;;;;;;5131834;28;20524;-63
2023/10/05 00:35:39;;;;;;;4.60;2.50;;;9.20;98.00;;;;;;5114074;28;20497;-64
2023/10/05 00:38:12;;;;;;;5.10;2.40;;;9.30;98.00;;;;;;5131540;28;20508;-63
2023/10/05 00:40:42;;;;;;;3.83;2.80;;;9.20;98.00;;;;;;5131849;28;20812;-64
2023/10/05 00:43:18;;;;;;;5.10;2.60;;;9.20;98.00;;;;;;5114150;28;20471;-63
2023/10/05 00:45:46;;;;;;;4.00;2.50;;;9.20;98.00;;;;;;5131864;28;20526;-65
2023/10/05 00:48:27;;;;;;;5.23;2.77;;;9.20;98.00;;;;;;5131151;28;20493;-63
2023/10/05 00:50:59;;;;;;;3.77;2.40;;;9.10;98.00;;;;;;5131660;28;20446;-63
2023/10/05 00:53:28;;;;;;;5.40;2.60;;;9.10;98.00;;;;;;5113928;28;20442;-63
2023/10/05 00:56:07;;;;;;;3.47;2.40;;;9.10;98.00;;;;;;5131569;28;20493;-64
2023/10/05 00:58:42;;;;;;;3.73;2.50;;;9.10;98.00;;;;;;5113104;28;20539;-63
2023/10/05 01:01:16;;;;;;;3.90;2.30;;;9.20;98.00;;;;;;5131550;28;20481;-63
2023/10/05 01:04:11;;;;;;;3.40;2.40;;;9.40;98.00;;;;;;5114442;28;20466;-63
2023/10/05 01:06:42;;;;;;;3.50;2.40;;;9.50;98.00;;;;;;5131401;28;20931;-63
2023/10/05 01:09:23;;;;;;;3.70;2.27;;;9.50;98.00;;;;;;5131595;28;20489;-64
2023/10/05 01:11:54;;;;;;;4.30;2.20;;;9.40;98.00;;;;;;5131773;27;20554;-63
2023/10/05 01:14:25;;;;;;;4.10;2.43;;;9.40;98.00;;;;;;5135269;27;20455;-63
2023/10/05 01:16:54;;;;;;;3.53;2.37;;;9.30;98.00;;;;;;5135207;27;20505;-62
2023/10/05 01:19:21;;;;;;;9.03;2.37;;;9.20;98.00;;;;;;5135306;27;20439;-63
2023/10/05 01:21:51;;;;;;;4.27;2.43;;;9.10;98.00;;;;;;5116853;27;20459;-63
2023/10/05 01:24:23;;;;;;;5.33;2.50;;;9.30;98.00;;;;;;5135112;27;20445;-63
2023/10/05 01:26:50;;;;;;;3.83;2.50;;;9.40;98.00;;;;;;5135070;27;20442;-63
2023/10/05 01:29:17;;;;;;;5.20;2.90;;;9.40;98.00;;;;;;5134972;27;20449;-63
2023/10/05 01:31:44;;;;;;;3.83;2.33;;;9.50;98.00;;;;;;5134855;27;20450;-63
2023/10/05 01:34:11;;;;;;;3.20;2.20;;;9.50;98.00;;;;;;5134649;27;20455;-63
2023/10/05 01:36:38;;;;;;;3.83;2.20;;;9.60;98.00;;;;;;5116407;27;20454;-63
2023/10/05 01:39:09;;;;;;;3.97;2.53;;;9.70;98.00;;;;;;5134679;27;20457;-63
2023/10/05 01:41:37;;;;;;;4.40;2.60;;;9.80;98.00;;;;;;5134187;27;20461;-64
2023/10/05 01:44:05;;;;;;;4.70;2.70;;;9.90;98.00;;;;;;5134494;27;20502;-63
2023/10/05 01:46:35;;;;;;;4.30;2.20;;;9.70;98.00;;;;;;5134314;27;20455;-64
2023/10/05 01:49:04;;;;;;;3.50;2.30;;;9.80;98.00;;;;;;5134737;27;20447;-64
2023/10/05 01:51:33;;;;;;;2.30;1.97;;;9.70;98.00;;;;;;5134656;27;20449;-63
2023/10/05 01:54:06;;;;;;;2.90;2.30;;;9.80;98.00;;;;;;5116481;27;20501;-63
2023/10/05 01:56:39;;;;;;;3.73;2.40;;;9.60;98.00;;;;;;5117538;27;20474;-63
2023/10/05 01:59:07;;;;;;;2.97;2.20;;;9.30;98.00;;;;;;5134195;27;20486;-64
2023/10/05 02:01:39;;;;;;;2.93;1.93;;;9.20;98.00;;;;;;5134481;27;20439;-63
2023/10/05 02:04:07;;;;;;;3.87;2.40;;;9.00;98.00;;;;;;5135132;27;20443;-64
2023/10/05 02:06:39;;;;;;;3.30;2.40;;;9.10;98.00;;;;;;5134364;27;20498;-64
2023/10/05 02:09:08;;;;;;;5.03;2.40;;;9.30;98.00;;;;;;5100153;27;20454;-64
2023/10/05 02:11:36;;;;;;;6.33;2.20;;;9.30;98.00;;;;;;5135015;27;20441;-63
2023/10/05 02:14:05;;;;;;;3.13;2.20;;;9.40;98.00;;;;;;5099607;27;20641;-63
2023/10/05 02:16:33;;;;;;;5.40;2.53;;;9.20;98.00;;;;;;5134221;27;20822;-64
2023/10/05 02:19:04;;;;;;;6.43;2.30;;;9.20;98.00;;;;;;5133745;27;20490;-64
2023/10/05 02:21:36;;;;;;;4.43;2.60;;;9.10;98.00;;;;;;5116301;27;20537;-63
2023/10/05 02:24:10;;;;;;;6.10;2.13;;;9.30;98.00;;;;;;5133762;27;20967;-63
2023/10/05 02:26:37;;;;;;;5.60;2.40;;;9.40;98.00;;;;;;5133787;27;20852;-63
2023/10/05 02:29:13;;;;;;;4.13;1.80;;;9.40;98.00;;;;;;5133697;27;20452;-63
2023/10/05 02:31:50;;;;;;;6.50;2.37;;;9.30;98.00;;;;;;5133811;27;20452;-63
2023/10/05 02:34:19;;;;;;;4.00;2.23;;;9.10;98.00;;;;;;5133721;27;20450;-64
2023/10/05 02:36:46;;;;;;;4.13;2.30;;;9.10;98.00;;;;;;5115501;27;20454;-63
2023/10/05 02:39:14;;;;;;;2.80;1.90;;;9.10;98.00;;;;;;5133433;27;20487;-63
2023/10/05 02:41:42;;;;;;;4.40;2.30;;;9.10;98.00;;;;;;5133397;27;20551;-64
2023/10/05 02:44:19;;;;;;;4.37;2.57;;;9.10;98.00;;;;;;5133339;27;20531;-63
2023/10/05 02:46:47;;;;;;;4.37;2.40;;;9.00;98.00;;;;;;5133463;27;20528;-63
2023/10/05 02:49:15;;;;;;;3.40;2.50;;;8.80;98.00;;;;;;5133483;27;20462;-63
2023/10/05 02:51:43;;;;;;;3.50;2.37;;;8.70;98.00;;;;;;5133248;27;20507;-63
2023/10/05 02:54:12;;;;;;;4.17;2.40;;;8.70;98.00;;;;;;5133483;27;20490;-63
2023/10/05 02:56:40;;;;;;;3.97;2.50;;;8.80;98.00;;;;;;5133034;27;20496;-64
2023/10/05 02:59:09;;;;;;;5.33;2.40;;;8.70;98.00;;;;;;5133277;27;20480;-63
2023/10/05 03:01:38;;;;;;;2.70;2.00;;;8.60;98.00;;;;;;5133435;27;20457;-63
2023/10/05 03:04:16;;;;;;;3.97;2.80;;;8.60;98.00;;;;;;5133263;27;20465;-62
2023/10/05 03:06:45;;;;;;;6.43;2.87;;;8.50;98.00;;;;;;5133029;27;20456;-63
2023/10/05 03:09:12;;;;;;;3.43;2.40;;;8.40;98.00;;;;;;5115076;27;20478;-63
2023/10/05 03:11:40;;;;;;;3.60;2.30;;;8.50;98.00;;;;;;5132899;27;20538;-63
2023/10/05 03:14:09;;;;;;;4.70;2.60;;;8.70;98.00;;;;;;5132856;27;20439;-62
2023/10/05 03:16:47;;;;;;;3.57;2.23;;;9.00;98.00;;;;;;5132705;27;20476;-63
2023/10/05 03:19:20;;;;;;;8.30;2.33;;;9.00;98.00;;;;;;5132672;27;20571;-64
2023/10/05 03:21:47;;;;;;;6.83;3.20;;;9.00;98.00;;;;;;5132652;27;20503;-63
2023/10/05 03:24:14;;;;;;;5.17;3.00;;;8.90;98.00;;;;;;5114471;27;20441;-62
2023/10/05 03:26:42;;;;;;;4.87;2.80;;;8.80;98.00;;;;;;5132563;27;20450;-65
2023/10/05 03:29:11;;;;;;;6.40;2.50;;;8.70;98.00;;;;;;5132680;27;20955;-63
2023/10/05 03:31:53;;;;;;;4.20;2.47;;;8.60;98.00;;;;;;5132591;27;20869;-63
2023/10/05 03:34:20;;;;;;;4.10;2.40;;;8.70;98.00;;;;;;5132355;27;21007;-63
2023/10/05 03:36:48;;;;;;;3.90;2.50;;;8.70;98.00;;;;;;5132172;27;20454;-63
2023/10/05 03:39:17;;;;;;;3.13;2.27;;;8.90;98.00;;;;;;5132308;27;20487;-63
2023/10/05 03:41:44;;;;;;;3.53;2.50;;;8.90;98.00;;;;;;5132521;27;20461;-64
2023/10/05 03:44:15;;;;;;;3.63;2.30;;;9.00;98.00;;;;;;5132247;27;20832;-63
2023/10/05 03:46:46;;;;;;;4.77;2.57;;;9.00;98.00;;;;;;5114547;27;20451;-63
2023/10/05 03:49:18;;;;;;;4.07;2.80;;;8.90;98.00;;;;;;5132635;27;20668;-62
2023/10/05 03:51:48;;;;;;;5.60;2.70;;;8.90;98.00;;;;;;5131930;27;20494;-63
2023/10/05 03:54:17;;;;;;;7.73;3.00;;;8.80;98.00;;;;;;5132226;27;20450;-62
2023/10/05 03:56:45;;;;;;;5.37;2.60;;;8.90;98.00;;;;;;5131948;27;20464;-62
2023/10/05 03:59:13;;;;;;;4.23;2.73;;;8.80;98.00;;;;;;5132186;28;20482;-63
2023/10/05 04:01:41;;;;;;;7.20;2.80;;;8.70;98.00;;;;;;5132212;28;20462;-63
2023/10/05 04:04:09;;;;;;;3.50;2.20;;;8.80;98.00;;;;;;5114066;28;20485;-62
2023/10/05 04:06:36;;;;;;;3.20;2.30;;;8.80;98.00;;;;;;5132109;28;20446;-62
2023/10/05 04:09:05;;;;;;;5.43;2.73;;;8.80;98.00;;;;;;5097027;28;20456;-64
2023/10/05 04:11:35;;;;;;;4.13;2.50;;;8.90;98.00;;;;;;5132123;28;20533;-63
2023/10/05 04:14:03;;;;;;;4.33;2.33;;;8.90;98.00;;;;;;5132204;28;20465;-63
2023/10/05 04:16:34;;;;;;;5.10;2.53;;;9.00;98.00;;;;;;5132303;28;20452;-63
2023/10/05 04:19:04;;;;;;;3.23;2.27;;;9.00;98.00;;;;;;5132045;28;20478;-63
2023/10/05 04:21:36;;;;;;;4.47;2.70;;;9.00;98.00;;;;;;5131989;28;20455;-62
2023/10/05 04:24:03;;;;;;;3.93;2.33;;;8.80;98.00;;;;;;5132048;28;20450;-63
2023/10/05 04:26:36;;;;;;;3.87;2.60;;;8.70;98.00;;;;;;5131853;28;20445;-63
2023/10/05 04:29:04;;;;;;;3.67;2.37;;;8.60;98.00;;;;;;5131825;28;20966;-63
2023/10/05 04:31:32;;;;;;;5.70;2.43;;;8.60;98.00;;;;;;5131904;28;20446;-64
2023/10/05 04:34:00;;;;;;;3.70;2.60;;;8.70;98.00;;;;;;5131755;28;20459;-64
2023/10/05 04:36:30;;;;;;;4.17;2.57;;;8.60;98.00;;;;;;5131840;28;20811;-65
2023/10/05 04:38:59;;;;;;;4.53;2.57;;;8.70;98.00;;;;;;5131900;28;20479;-63
2023/10/05 04:41:28;;;;;;;3.90;2.20;;;8.70;98.00;;;;;;5114007;28;20454;-63
2023/10/05 04:43:56;;;;;;;3.57;2.60;;;8.70;98.00;;;;;;5131976;28;20823;-63
2023/10/05 04:46:23;;;;;;;4.47;2.70;;;8.90;98.00;;;;;;5113674;28;20443;-63
2023/10/05 04:49:02;;;;;;;4.03;2.40;;;8.90;98.00;;;;;;5135626;27;20485;-63
2023/10/05 04:51:31;;;;;;;4.07;2.60;;;8.90;98.00;;;;;;5135716;27;20449;-62
2023/10/05 04:54:01;;;;;;;3.60;2.40;;;9.00;98.00;;;;;;5135564;27;20450;-64
2023/10/05 04:56:40;;;;;;;3.30;2.37;;;8.90;98.00;;;;;;5116883;27;20813;-64
2023/10/05 04:59:37;;;;;;;2.77;2.50;;;8.90;98.00;;;;;;5135401;27;20580;-63
2023/10/05 05:05:07;;;;;;;3.90;2.50;;;9.30;98.00;;;;;;5131727;27;20503;-63
2023/10/05 05:07:36;;;;;;;5.03;2.43;;;9.20;98.00;;;;;;5135317;27;20868;-64
2023/10/05 05:10:06;;;;;;;6.97;3.00;;;9.20;98.00;;;;;;5117443;27;20531;-62
2023/10/05 05:12:35;;;;;;;3.90;2.40;;;9.20;98.00;;;;;;5135311;27;20838;-63
2023/10/05 05:15:03;;;;;;;4.57;2.60;;;9.20;98.00;;;;;;5135263;27;20845;-63
2023/10/05 05:17:33;;;;;;;4.77;2.60;;;9.20;98.00;;;;;;5135157;27;20452;-65
2023/10/05 05:20:11;;;;;;;4.20;2.60;;;9.20;98.00;;;;;;5117062;27;20895;-63
2023/10/05 05:22:38;;;;;;;4.27;2.47;;;9.20;98.00;;;;;;5134730;27;20446;-62
2023/10/05 05:25:08;;;;;;;5.43;2.83;;;9.40;98.00;;;;;;5116752;27;20463;-64
2023/10/05 05:27:36;;;;;;;4.10;2.50;;;9.30;98.00;;;;;;5135027;27;20451;-63
2023/10/05 05:30:04;;;;;;;5.47;2.97;;;9.40;98.00;;;;;;5134452;27;20806;-63
2023/10/05 05:32:31;;;;;;;4.73;2.70;;;9.50;98.00;;;;;;5134818;27;20448;-63
2023/10/05 05:35:01;;;;;;;4.37;2.63;;;9.50;98.00;;;;;;5134809;27;20446;-63
2023/10/05 05:37:28;;;;;;;6.07;2.90;;;9.40;98.00;;;;;;5134796;27;20452;-63
2023/10/05 05:39:56;;;;;;;4.90;2.70;;;9.40;98.00;;;;;;5134658;27;21040;-63
2023/10/05 05:42:30;;;;;;;4.93;2.63;;;9.40;98.00;;;;;;5134865;27;20446;-64
2023/10/05 05:44:57;;;;;;;4.80;2.83;;;9.60;98.00;;;;;;5134572;27;20448;-64
2023/10/05 05:47:24;;;;;;;5.43;2.83;;;9.50;98.00;;;;;;5116427;27;20461;-63
2023/10/05 05:49:52;;;;;;;5.43;2.70;;;9.30;98.00;;;;;;5134540;27;20445;-65
2023/10/05 05:52:19;;;;;;;4.07;2.43;;;9.20;98.00;;;;;;5134460;27;20460;-64
2023/10/05 05:54:47;;;;;;;3.43;2.57;;;9.30;98.00;;;;;;5134462;27;20446;-63
2023/10/05 05:57:19;;;;;;;5.23;2.47;;;9.60;98.00;;;;;;5134177;27;20484;-63
2023/10/05 05:59:47;;;;;;;6.23;3.10;;;9.50;98.00;;;;;;5133957;27;20531;-60
2023/10/05 06:02:14;;;;;;;5.63;2.73;;;9.60;98.00;;;;;;5133972;27;20450;-60
2023/10/05 06:04:42;;;;;;;4.50;2.83;;;9.60;98.00;;;;;;5134190;27;20923;-61
2023/10/05 06:07:13;;;;;;;4.93;2.57;;;9.70;98.00;;;;;;5134081;27;20461;-60
2023/10/05 06:09:42;;;;;;;4.43;2.90;;;9.80;98.00;;;;;;5134258;27;20474;-60
2023/10/05 06:12:10;;;;;;;4.20;3.00;;;9.80;98.00;;;;;;5134095;27;20616;-59
2023/10/05 06:14:38;;;;;;;4.67;2.83;;;9.70;98.00;;;;;;5134223;27;20472;-62
2023/10/05 06:17:06;;;;;;;3.53;2.30;;;9.80;98.00;;;;;;5115863;27;20947;-59
2023/10/05 06:19:33;;;;;;;3.87;2.70;;;9.90;98.00;;;;;;5134118;27;20529;-59
2023/10/05 06:22:12;;;;;;;4.77;2.57;;;9.90;98.00;;;;;;5115692;27;20475;-59
2023/10/05 06:24:45;;;;;;;4.50;2.50;;;10.00;98.00;;;;;;5134369;27;20453;-59
2023/10/05 06:27:13;;;;;;;3.53;2.43;;;10.10;98.00;;;;;;5133817;27;20454;-60
2023/10/05 06:29:41;;;;;;;4.70;2.70;;;10.20;98.00;;;;;;5133997;27;20822;-59
2023/10/05 06:32:09;;;;;;;12.20;3.00;;;10.30;98.00;;;;;;5133681;27;20446;-60
2023/10/05 06:34:37;;;;;;;6.30;3.30;;;10.30;98.00;;;;;;5133681;27;20438;-60
2023/10/05 06:37:04;;;;;;;6.00;3.17;;;10.40;98.00;;;;;;5133442;27;21014;-59
2023/10/05 06:39:32;;;;;;;6.10;2.60;;;10.40;98.00;;;;;;5133578;27;20481;-59
2023/10/05 06:41:59;;;;;;;7.80;3.00;;;10.50;98.00;;;;;;5133415;27;20447;-58
2023/10/05 06:44:27;;;;;;;5.50;3.13;;;10.40;98.00;;;;;;5115281;27;20457;-61
2023/10/05 06:46:55;;;;;;;4.50;2.73;;;10.40;98.00;;;;;;5133230;27;20488;-59
2023/10/05 06:49:24;;;;;;;4.63;2.83;;;10.50;98.00;;;;;;5133278;27;20455;-60
2023/10/05 06:51:52;;;;;;;3.67;2.57;;;10.50;98.00;;;;;;5133289;27;20453;-60
2023/10/05 06:54:19;;;;;;;7.03;3.00;;;10.50;98.00;;;;;;5133304;27;20982;-61
2023/10/05 06:56:49;;;;;;;6.60;3.17;;;10.60;98.00;;;;;;5133175;27;20451;-59
2023/10/05 06:59:16;;;;;;;3.40;2.70;;;10.60;98.00;;;;;;5132987;27;20484;-60
2023/10/05 07:01:43;;;;;;;6.90;3.27;;;10.60;98.00;;;;;;5133068;27;20495;-61
2023/10/05 07:04:12;;;;;;;9.27;2.80;;;10.50;98.00;;;;;;5132750;27;20498;-60
2023/10/05 07:06:41;;;;;;;4.33;2.73;;;10.60;98.00;;;;;;5132998;27;20550;-61
2023/10/05 07:09:11;;;;;;;4.60;2.93;;;10.60;98.00;;;;;;5132739;27;20476;-61
2023/10/05 07:11:39;;;;;;;4.90;2.80;;;10.80;98.00;;;;;;5132667;27;20447;-59
2023/10/05 07:14:06;;;;;;;5.00;2.80;;;10.90;98.00;;;;;;5132987;27;20443;-60
2023/10/05 07:16:33;;;;;;;4.90;3.00;;;10.90;98.00;;;;;;5132865;27;20492;-59
2023/10/05 07:19:00;;;;;;;7.00;3.80;;;10.90;98.00;;;;;;5132730;27;20840;-61
2023/10/05 07:21:27;;;;;;;5.97;3.37;;;10.90;98.00;;;;;;5114676;27;20454;-59
2023/10/05 07:23:56;;;;;;;5.43;3.13;;;10.90;98.00;;;;;;5114633;27;20461;-59
2023/10/05 07:26:23;;;;;;;6.03;3.23;;;10.90;98.00;;;;;;5132868;27;20463;-60
2023/10/05 07:28:50;;;;;;;5.87;3.17;;;10.90;98.00;;;;;;5132417;27;20998;-58
2023/10/05 07:31:17;;;;;;;7.73;3.37;;;11.00;98.00;;;;;;5132659;27;20460;-61
2023/10/05 07:33:44;;;;;;;5.17;3.13;;;11.20;98.00;;;;;;5132536;27;20454;-60
2023/10/05 07:36:13;;;;;;;5.13;3.20;;;11.40;98.00;;;;;;5132352;27;20466;-61
2023/10/05 07:38:40;;;;;;;7.47;3.47;;;11.50;98.00;;;;;;5132414;27;20446;-60
2023/10/05 07:41:09;;;;;;;6.33;3.47;;;11.60;98.00;;;;;;5132656;27;20473;-60
2023/10/05 07:43:36;;;;;;;5.67;3.77;;;11.70;98.00;;;;;;5078242;28;20456;-61
2023/10/05 07:46:06;;;;;;;4.73;2.80;;;11.90;98.00;;;;;;5111729;28;20452;-58
2023/10/05 07:48:36;;;;;;;4.73;3.20;;;12.00;98.00;;;;;;5111993;28;20958;-61
2023/10/05 07:51:03;;;;;;;6.80;3.50;;;12.10;98.00;;;;;;5111625;28;20462;-60
2023/10/05 07:53:31;;;;;;;9.47;3.33;;;12.20;98.00;;;;;;5111761;28;20454;-60
2023/10/05 07:55:58;;;;;;;5.57;2.93;;;12.30;98.00;;;;;;5111739;28;20477;-58
2023/10/05 07:58:27;;;;;;;7.70;4.17;;;12.40;98.00;;;;;;5111755;28;21014;-60
2023/10/05 08:00:54;;;;;;;6.40;3.00;;;12.50;98.00;;;;;;5111841;28;20998;-60
2023/10/05 08:03:22;;;;;;;4.90;2.90;;;12.60;98.00;;;;;;5112436;28;20451;-59
2023/10/05 08:05:50;;;;;;;5.37;3.37;;;12.80;98.00;;;;;;5112133;28;20442;-59
2023/10/05 08:08:17;;;;;;;5.60;2.77;;;12.60;98.00;;;;;;5112357;28;20454;-59
2023/10/05 08:10:46;;;;;;;5.90;3.00;;;12.60;98.00;;;;;;5112161;28;20546;-59
2023/10/05 08:13:16;;;;;;;8.60;3.70;;;12.90;98.00;;;;;;5112167;28;20489;-58
2023/10/05 08:15:46;;;;;;;7.57;3.50;;;13.10;98.00;;;;;;5112369;28;20478;-64
2023/10/05 08:18:13;;;;;;;6.10;3.23;;;13.30;98.00;;;;;;5094039;28;20503;-60
2023/10/05 08:20:40;;;;;;;5.97;3.10;;;13.60;98.00;;;;;;5111958;28;20524;-59
2023/10/05 08:23:08;;;;;;;4.00;2.77;;;13.90;98.00;;;;;;5116208;28;20471;-60
2023/10/05 08:25:40;;;;;;;8.60;3.30;;;13.90;98.00;;;;;;5116438;28;20457;-59
2023/10/05 08:28:09;;;;;;;5.63;3.50;;;14.10;98.00;;;;;;5116134;28;20530;-59
2023/10/05 08:30:45;;;;;;;8.73;3.30;;;14.00;98.00;;;;;;5116212;28;20825;-60
2023/10/05 08:33:19;;;;;;;4.70;3.10;;;14.00;98.00;;;;;;5116124;28;20462;-60
2023/10/05 08:35:46;;;;;;;4.73;3.07;;;14.00;98.00;;;;;;5116169;28;20444;-60
2023/10/05 08:38:15;;;;;;;6.50;3.20;;;14.00;98.00;;;;;;5115849;28;20461;-60
2023/10/05 08:40:45;;;;;;;4.53;3.03;;;14.10;98.00;;;;;;5115999;28;20483;-60
2023/10/05 08:43:13;;;;;;;5.43;3.00;;;14.10;98.00;;;;;;5115929;28;20454;-61
2023/10/05 08:45:50;;;;;;;5.80;3.10;;;14.30;98.00;;;;;;5115946;28;20853;-60
2023/10/05 08:48:22;;;;;;;7.33;3.33;;;14.50;98.00;;;;;;5114961;28;20483;-59
2023/10/05 08:50:54;;;;;;;4.67;2.83;;;14.50;98.00;;;;;;5113843;28;20454;-61
2023/10/05 08:53:23;;;;;;;7.00;3.53;;;14.50;98.00;;;;;;5115001;28;20939;-61
2023/10/05 08:55:52;;;;;;;5.30;3.13;;;14.80;98.00;;;;;;5114699;28;20473;-61
2023/10/05 08:58:20;;;;;;;6.27;3.10;;;14.90;98.00;;;;;;5115590;28;20461;-59
2023/10/05 09:00:48;;;;;;;5.90;3.00;;;15.10;98.00;;;;;;5115623;28;20568;-61
2023/10/05 09:06:15;;;;;;;4.90;3.00;;;15.20;98.00;;;;;;5099463;28;20458;-58
2023/10/05 09:08:51;;;;;;;7.00;3.33;;;15.40;98.00;;;;;;5115453;28;20461;-59
2023/10/05 09:11:20;;;;;;;4.50;2.93;;;15.60;98.00;;;;;;5115452;28;20442;-60
2023/10/05 09:13:47;;;;;;;5.00;3.03;;;15.60;98.00;;;;;;5115458;28;20455;-60
2023/10/05 09:16:22;;;;;;;5.77;2.93;;;15.70;98.00;;;;;;5115143;28;20450;-59
2023/10/05 09:18:51;;;;;;;5.67;2.63;;;15.90;98.00;;;;;;5096848;28;20454;-59
2023/10/05 09:21:19;;;;;;;3.80;2.60;;;16.00;98.00;;;;;;5097279;28;20569;-60
2023/10/05 09:23:47;;;;;;;4.10;2.40;;;16.20;98.00;;;;;;5115087;28;20446;-60
2023/10/05 09:26:33;;;;;;;7.63;2.90;;;16.50;98.00;;;;;;5114815;28;20960;-61
2023/10/05 09:29:20;;;;;;;8.20;3.10;;;16.70;98.00;;;;;;5115077;28;20504;-60
2023/10/05 09:31:50;;;;;;;11.47;3.20;;;16.80;98.00;;;;;;5114856;28;20483;-59
2023/10/05 09:34:20;;;;;;;6.93;2.77;;;16.70;98.00;;;;;;5113977;28;20446;-58
2023/10/05 09:36:53;;;;;;;7.03;2.50;;;16.70;98.00;;;;;;5114817;28;20449;-59
2023/10/05 09:39:26;;;;;;;7.70;2.47;;;16.70;98.00;;;;;;5114546;28;20948;-60
2023/10/05 09:41:56;;;;;;;8.00;3.40;;;16.80;98.00;;;;;;5097277;28;20512;-58
2023/10/05 09:44:28;;;;;;;5.80;2.40;;;16.90;98.00;;;;;;5114435;28;20534;-58
2023/10/05 09:46:59;;;;;;;4.47;2.47;;;17.00;98.00;;;;;;5114134;28;20450;-59
2023/10/05 09:49:27;;;;;;;6.63;3.17;;;17.10;98.00;;;;;;5114019;28;20521;-60
2023/10/05 09:51:57;;;;;;;7.40;3.50;;;17.30;98.00;;;;;;5112726;28;20454;-60
2023/10/05 09:54:28;;;;;;;8.20;3.17;;;17.30;98.00;;;;;;5112574;28;20451;-60
2023/10/05 09:56:56;;;;;;;5.47;2.73;;;17.30;98.00;;;;;;5112101;28;20482;-59
2023/10/05 09:59:25;;;;;;;8.03;3.10;;;17.50;98.00;;;;;;5112439;28;21084;-60
2023/10/05 10:01:57;;;;;;;7.10;3.40;;;17.50;98.00;;;;;;5094287;28;20465;-60
2023/10/05 10:04:36;;;;;;;5.80;3.23;;;17.50;98.00;;;;;;5112733;28;20458;-60
2023/10/05 10:07:15;;;;;;;7.93;3.10;;;17.60;98.00;;;;;;5097067;28;20451;-59
2023/10/05 10:09:46;;;;;;;6.07;3.13;;;17.70;98.00;;;;;;5114197;28;21026;-60
2023/10/05 10:12:26;;;;;;;8.70;3.00;;;17.70;98.00;;;;;;5114079;28;20530;-59
2023/10/05 10:14:58;;;;;;;5.83;2.90;;;17.80;98.00;;;;;;5114070;28;20447;-61
2023/10/05 10:17:30;;;;;;;5.77;3.20;;;17.80;98.00;;;;;;5113920;28;20451;-59
2023/10/05 10:20:07;;;;;;;11.20;2.90;;;17.70;98.00;;;;;;5113701;28;21012;-60
2023/10/05 10:22:55;;;;;;;6.90;2.73;;;17.80;98.00;;;;;;5096986;28;20985;-61
2023/10/05 10:25:30;;;;;;;6.70;2.70;;;17.80;98.00;;;;;;5113773;28;20957;-59
2023/10/05 10:28:14;;;;;;;9.33;3.00;;;18.10;98.00;;;;;;5113523;28;20512;-61
2023/10/05 10:30:47;;;;;;;7.97;3.07;;;18.40;98.00;;;;;;5113687;28;20447;-60
2023/10/05 10:33:30;;;;;;;5.60;3.00;;;18.60;98.00;;;;;;5095953;28;20508;-60
2023/10/05 10:35:59;;;;;;;10.10;3.73;;;18.70;98.00;;;;;;5113804;28;20454;-59
2023/10/05 10:38:28;;;;;;;7.03;3.10;;;19.00;98.00;;;;;;5095507;28;20861;-60
2023/10/05 10:41:07;;;;;;;8.57;2.87;;;19.20;98.00;;;;;;5113458;28;21064;-60
2023/10/05 10:43:36;;;;;;;8.17;3.40;;;19.40;98.00;;;;;;5113649;28;20461;-60
2023/10/05 10:46:12;;;;;;;5.63;3.17;;;19.70;98.00;;;;;;5113515;28;20459;-60
2023/10/05 10:48:53;;;;;;;5.40;3.20;;;19.90;98.00;;;;;;5113476;28;20450;-60
2023/10/05 10:51:21;;;;;;;7.60;3.00;;;20.00;98.00;;;;;;5113422;28;20473;-61
2023/10/05 10:53:56;;;;;;;8.23;3.47;;;20.10;98.00;;;;;;5113251;28;20463;-59
2023/10/05 10:56:29;;;;;;;9.07;2.93;;;20.10;98.00;;;;;;5095556;28;21253;-60
2023/10/05 10:59:09;;;;;;;9.03;3.30;;;20.20;98.00;;;;;;5113074;28;20459;-59
2023/10/05 11:01:44;;;;;;;7.40;3.30;;;20.50;98.00;;;;;;5113287;28;20520;-60
2023/10/05 11:04:26;;;;;;;5.93;2.90;;;20.60;98.00;;;;;;5113272;28;20963;-61
2023/10/05 11:06:59;;;;;;;5.40;3.10;;;20.40;98.00;;;;;;5113247;28;20520;-59
2023/10/05 11:09:36;;;;;;;7.47;3.33;;;20.50;98.00;;;;;;5113573;28;20479;-60
2023/10/05 11:12:11;;;;;;;6.70;3.23;;;20.40;98.00;;;;;;5095383;28;20917;-60
2023/10/05 11:14:44;;;;;;;6.97;3.13;;;20.10;98.00;;;;;;5113177;28;20451;-59
2023/10/05 11:17:30;;;;;;;5.50;3.03;;;19.80;98.00;;;;;;5113099;28;20455;-59
2023/10/05 11:20:11;;;;;;;8.77;3.37;;;19.80;98.00;;;;;;5113159;28;20528;-59
2023/10/05 11:22:42;;;;;;;9.67;3.77;;;19.60;98.00;;;;;;5097332;28;20451;-59
2023/10/05 11:25:16;;;;;;;9.40;3.37;;;19.50;98.00;;;;;;5112841;28;20561;-59
2023/10/05 11:27:48;;;;;;;6.30;3.00;;;19.50;98.00;;;;;;5095031;28;20511;-59
2023/10/05 11:30:18;;;;;;;5.80;2.87;;;19.70;98.00;;;;;;5104344;27;20450;-62
2023/10/05 11:32:47;;;;;;;8.37;2.77;;;19.90;98.00;;;;;;5133143;27;20468;-59
2023/10/05 11:35:16;;;;;;;8.57;2.80;;;20.00;98.00;;;;;;5132981;27;20478;-59
2023/10/05 11:37:45;;;;;;;6.20;2.70;;;20.10;98.00;;;;;;5114525;27;20458;-59
2023/10/05 11:40:23;;;;;;;9.60;2.90;;;20.20;98.00;;;;;;5133010;27;20505;-59
2023/10/05 11:42:51;;;;;;;5.33;2.80;;;20.20;98.00;;;;;;5133032;27;20449;-59
2023/10/05 11:45:19;;;;;;;7.10;2.90;;;20.10;98.00;;;;;;5132892;27;20442;-60
2023/10/05 11:47:52;;;;;;;5.83;2.93;;;20.00;98.00;;;;;;5132789;27;20794;-61
2023/10/05 11:50:32;;;;;;;5.87;3.20;;;19.80;98.00;;;;;;5132969;27;20473;-60
2023/10/05 11:53:06;;;;;;;4.90;2.83;;;19.70;98.00;;;;;;5116678;27;20511;-59
2023/10/05 11:55:35;;;;;;;6.20;3.07;;;19.40;98.00;;;;;;5132535;27;20515;-60
2023/10/05 11:58:02;;;;;;;5.70;3.13;;;19.30;98.00;;;;;;5132416;27;20464;-60
2023/10/05 12:00:31;;;;;;;6.20;3.03;;;19.30;98.00;;;;;;5132238;27;20569;-59
2023/10/05 12:02:58;;;;;;;6.13;3.10;;;19.20;98.00;;;;;;5114634;28;20438;-59
2023/10/05 12:05:28;;;;;;;8.03;3.47;;;19.10;98.00;;;;;;5132472;28;20529;-59
2023/10/05 12:07:59;;;;;;;8.80;3.67;;;18.90;98.00;;;;;;5132665;28;20446;-60
2023/10/05 12:10:26;;;;;;;8.73;3.57;;;18.70;98.00;;;;;;5132741;28;20985;-59
2023/10/05 12:12:56;;;;;;;7.73;3.77;;;18.50;98.00;;;;;;5132518;28;20453;-59
2023/10/05 12:15:23;;;;;;;6.60;3.43;;;18.30;98.00;;;;;;5132854;28;20450;-60
2023/10/05 12:17:50;;;;;;;7.20;3.70;;;18.30;98.00;;;;;;5132716;28;20458;-58
2023/10/05 12:20:18;;;;;;;11.10;3.57;;;18.30;98.00;;;;;;5132517;28;20531;-61
2023/10/05 12:22:46;;;;;;;6.73;3.63;;;18.30;98.00;;;;;;5132688;28;20454;-58
2023/10/05 12:25:16;;;;;;;6.63;3.33;;;18.30;98.00;;;;;;5132624;28;20940;-59
2023/10/05 12:27:44;;;;;;;7.80;3.40;;;18.20;98.00;;;;;;5132369;28;20457;-58
2023/10/05 12:30:15;;;;;;;8.23;3.30;;;18.20;98.00;;;;;;5132545;28;20454;-59
2023/10/05 12:32:42;;;;;;;7.50;3.20;;;18.20;98.00;;;;;;5132750;28;20519;-58
2023/10/05 12:35:13;;;;;;;18.03;3.40;;;18.20;98.00;;;;;;5132774;28;20465;-58
2023/10/05 12:37:41;;;;;;;8.10;3.10;;;18.20;98.00;;;;;;5132830;28;20450;-59
2023/10/05 12:40:18;;;;;;;5.87;2.97;;;18.10;98.00;;;;;;5132616;28;20446;-59
2023/10/05 12:42:52;;;;;;;8.10;3.30;;;18.20;98.00;;;;;;5132467;28;20497;-61
2023/10/05 12:45:22;;;;;;;6.43;2.97;;;18.20;98.00;;;;;;5132705;28;20446;-58
2023/10/05 12:47:53;;;;;;;4.93;2.80;;;18.10;98.00;;;;;;5132743;28;20931;-58
2023/10/05 12:50:21;;;;;;;6.47;3.27;;;18.20;98.00;;;;;;5132671;28;20450;-60
2023/10/05 12:52:51;;;;;;;8.90;3.17;;;18.20;98.00;;;;;;5114717;28;20939;-59
2023/10/05 12:55:19;;;;;;;9.40;3.00;;;18.30;98.00;;;;;;5132397;28;20453;-61
2023/10/05 12:57:50;;;;;;;7.00;3.20;;;18.20;98.00;;;;;;5131698;28;20484;-59
2023/10/05 13:00:27;;;;;;;7.10;3.27;;;18.20;98.00;;;;;;5114318;28;20523;-59
2023/10/05 13:02:55;;;;;;;6.80;3.70;;;18.00;98.00;;;;;;5132486;28;20458;-58
2023/10/05 13:05:28;;;;;;;12.03;3.50;;;17.90;98.00;;;;;;5132153;28;20549;-59
2023/10/05 13:07:56;;;;;;;5.47;3.10;;;17.80;98.00;;;;;;5132756;27;20457;-58
2023/10/05 13:10:26;;;;;;;10.10;3.80;;;17.70;98.00;;;;;;5117666;27;20450;-59
2023/10/05 13:13:00;;;;;;;4.93;3.00;;;17.60;98.00;;;;;;5135779;27;20442;-59